createdAt,value
2023-02-06T00:01:23.908Z,99280.05
2023-02-06T00:03:51.856Z,99276.55
2023-02-06T00:06:20.352Z,99278.14
2023-02-06T00:08:48.301Z,99281.98
2023-02-06T00:11:21.285Z,99282.86
2023-02-06T00:13:49.678Z,99280.90
2023-02-06T00:16:20.988Z,99273.04
2023-02-06T00:18:49.688Z,99271.86
2023-02-06T00:21:22.142Z,99276.48
2023-02-06T00:23:50.885Z,99284.64
2023-02-06T00:26:19.182Z,99278.05
2023-02-06T00:28:47.904Z,99277.21
2023-02-06T00:31:16.231Z,99276.83
2023-02-06T00:33:44.534Z,99274.06
2023-02-06T00:36:12.675Z,99276.93
2023-02-06T00:38:40.626Z,99276.19
2023-02-06T00:41:08.708Z,99273.27
2023-02-06T00:43:36.778Z,99274.24
2023-02-06T00:46:05.364Z,99280.86
2023-02-06T00:48:33.748Z,99286.86
2023-02-06T00:51:01.716Z,99284.73
2023-02-06T00:53:30.335Z,99286.08
2023-02-06T00:55:59.539Z,99287.08
2023-02-06T00:58:27.688Z,99280.67
2023-02-06T01:00:55.984Z,99284.98
2023-02-06T01:03:24.718Z,99288.36
2023-02-06T01:05:52.784Z,99291.41
2023-02-06T01:08:20.839Z,99291.31
2023-02-06T01:10:49.032Z,99288.85
2023-02-06T01:13:17.114Z,99286.42
2023-02-06T01:15:45.088Z,99282.95
2023-02-06T01:18:13.025Z,99282.20
2023-02-06T01:20:41.610Z,99287.64
2023-02-06T01:23:09.779Z,99289.01
2023-02-06T01:25:38.197Z,99286.20
2023-02-06T01:28:06.419Z,99290.88
2023-02-06T01:30:34.472Z,99284.55
2023-02-06T01:33:02.650Z,99284.98
2023-02-06T01:35:31.054Z,99285.83
2023-02-06T01:37:59.124Z,99289.27
2023-02-06T01:40:27.035Z,99290.21
2023-02-06T01:42:55.093Z,99282.25
2023-02-06T01:45:23.646Z,99285.23
2023-02-06T01:48:02.054Z,99288.11
2023-02-06T01:50:31.831Z,99289.88
2023-02-06T01:53:00.291Z,99291.06
2023-02-06T01:55:28.727Z,99296.86
2023-02-06T01:57:57.610Z,99309.59
2023-02-06T02:00:25.704Z,99305.40
2023-02-06T02:02:54.119Z,99302.92
2023-02-06T02:05:23.300Z,99297.73
2023-02-06T02:07:55.133Z,99295.80
2023-02-06T02:10:23.082Z,99298.48
2023-02-06T02:12:51.158Z,99295.65
2023-02-06T02:15:20.227Z,99296.89
2023-02-06T02:18:11.565Z,99293.36
2023-02-06T02:20:51.923Z,99293.63
2023-02-06T02:23:26.242Z,99295.98
2023-02-06T02:26:18.371Z,99305.81
2023-02-06T02:28:55.664Z,99304.71
2023-02-06T02:31:26.490Z,99308.38
2023-02-06T02:34:20.432Z,99306.27
2023-02-06T02:36:52.429Z,99308.09
2023-02-06T02:39:27.778Z,99308.74
2023-02-06T02:41:55.741Z,99307.83
2023-02-06T02:44:23.819Z,99304.41
2023-02-06T02:46:54.450Z,99305.54
2023-02-06T02:49:25.177Z,99310.06
2023-02-06T02:51:54.173Z,99315.41
2023-02-06T02:54:22.328Z,99320.08
2023-02-06T02:56:50.422Z,99311.73
2023-02-06T02:59:23.768Z,99318.23
2023-02-06T03:02:13.142Z,99322.09
2023-02-06T03:04:44.930Z,99324.00
2023-02-06T03:07:13.121Z,99326.57
2023-02-06T03:09:46.472Z,99332.20
2023-02-06T03:12:14.678Z,99336.25
2023-02-06T03:15:02.898Z,99332.77
2023-02-06T03:17:39.383Z,99336.85
2023-02-06T03:20:08.955Z,99334.09
2023-02-06T03:22:37.911Z,99332.24
2023-02-06T03:25:10.437Z,99344.45
2023-02-06T03:27:40.210Z,99346.04
2023-02-06T03:30:09.708Z,99345.16
2023-02-06T03:32:42.040Z,99346.86
2023-02-06T03:35:16.694Z,99351.70
2023-02-06T03:37:45.387Z,99351.15
2023-02-06T03:40:13.893Z,99354.83
2023-02-06T03:42:45.672Z,99356.17
2023-02-06T03:45:17.178Z,99360.98
2023-02-06T03:47:47.250Z,99363.45
2023-02-06T03:50:16.190Z,99365.25
2023-02-06T03:52:47.171Z,99369.62
2023-02-06T03:55:18.953Z,99367.89
2023-02-06T03:57:50.476Z,99368.52
2023-02-06T04:00:19.066Z,99368.94
2023-02-06T04:02:47.827Z,99366.19
2023-02-06T04:05:17.520Z,99368.78
2023-02-06T04:07:45.686Z,99365.13
2023-02-06T04:10:13.779Z,99365.16
2023-02-06T04:12:41.821Z,99361.04
2023-02-06T04:15:10.401Z,99366.52
2023-02-06T04:17:53.472Z,99365.70
2023-02-06T04:20:25.879Z,99368.22
2023-02-06T04:22:53.975Z,99367.95
2023-02-06T04:25:22.168Z,99369.60
2023-02-06T04:27:50.747Z,99371.13
2023-02-06T04:30:19.106Z,99369.73
2023-02-06T04:32:47.328Z,99365.41
2023-02-06T04:35:15.268Z,99367.08
2023-02-06T04:37:43.278Z,99366.02
2023-02-06T04:40:11.985Z,99365.56
2023-02-06T04:42:40.014Z,99364.76
2023-02-06T04:45:08.601Z,99366.94
2023-02-06T04:47:36.858Z,99370.00
2023-02-06T04:50:05.956Z,99368.64
2023-02-06T04:52:34.248Z,99367.79
2023-02-06T04:55:02.195Z,99365.25
2023-02-06T04:57:30.190Z,99360.59
2023-02-06T04:59:58.269Z,99365.53
2023-02-06T05:02:26.550Z,99366.98
2023-02-06T05:04:54.819Z,99364.54
2023-02-06T05:07:22.815Z,99364.89
2023-02-06T05:09:50.845Z,99361.38
2023-02-06T05:12:18.831Z,99362.83
2023-02-06T05:14:46.822Z,99361.64
2023-02-06T05:17:14.780Z,99364.42
2023-02-06T05:19:42.794Z,99366.27
2023-02-06T05:22:10.933Z,99365.27
2023-02-06T05:24:38.929Z,99367.61
2023-02-06T05:27:07.099Z,99367.55
2023-02-06T05:29:35.172Z,99364.25
2023-02-06T05:32:03.772Z,99362.17
2023-02-06T05:34:31.836Z,99361.55
2023-02-06T05:36:59.898Z,99362.83
2023-02-06T05:39:28.085Z,99366.74
2023-02-06T05:41:56.068Z,99369.89
2023-02-06T05:44:24.308Z,99375.41
2023-02-06T05:46:52.281Z,99376.47
2023-02-06T05:49:20.516Z,99376.10
2023-02-06T05:51:48.545Z,99377.09
2023-02-06T05:54:18.543Z,99373.75
2023-02-06T05:56:46.712Z,99373.81
2023-02-06T05:59:14.753Z,99377.80
2023-02-06T06:01:42.699Z,99379.69
2023-02-06T06:04:11.300Z,99378.21
2023-02-06T06:06:39.399Z,99375.45
2023-02-06T06:09:07.579Z,99370.55
2023-02-06T06:11:35.521Z,99368.56
2023-02-06T06:14:03.722Z,99368.50
2023-02-06T06:16:32.265Z,99366.07
2023-02-06T06:19:01.911Z,99370.34
2023-02-06T06:21:31.028Z,99366.20
2023-02-06T06:23:59.065Z,99365.58
2023-02-06T06:26:27.264Z,99365.67
2023-02-06T06:28:56.140Z,99369.61
2023-02-06T06:31:24.274Z,99379.59
2023-02-06T06:33:52.988Z,99382.02
2023-02-06T06:36:21.107Z,99384.92
2023-02-06T06:38:49.222Z,99381.66
2023-02-06T06:41:17.375Z,99382.10
2023-02-06T06:43:45.300Z,99382.05
2023-02-06T06:46:13.378Z,99379.85
2023-02-06T06:48:41.352Z,99376.86
2023-02-06T06:51:09.293Z,99380.25
2023-02-06T06:53:40.195Z,99382.24
2023-02-06T06:56:10.689Z,99390.71
2023-02-06T06:58:38.707Z,99393.99
2023-02-06T07:01:06.747Z,99400.10
2023-02-06T07:03:35.254Z,99404.94
2023-02-06T07:06:03.837Z,99406.20
2023-02-06T07:08:32.043Z,99409.01
2023-02-06T07:11:00.061Z,99402.51
2023-02-06T07:13:28.365Z,99403.67
2023-02-06T07:15:56.320Z,99409.27
2023-02-06T07:18:24.284Z,99410.96
2023-02-06T07:20:52.465Z,99408.63
2023-02-06T07:23:20.733Z,99398.84
2023-02-06T07:25:49.090Z,99386.21
2023-02-06T07:28:17.214Z,99382.71
2023-02-06T07:30:45.378Z,99383.38
2023-02-06T07:33:13.529Z,99383.26
2023-02-06T07:35:43.037Z,99384.86
2023-02-06T07:38:11.314Z,99387.09
2023-02-06T07:40:45.203Z,99391.55
2023-02-06T07:43:13.880Z,99392.42
2023-02-06T07:45:42.206Z,99395.71
2023-02-06T07:48:12.268Z,99407.27
2023-02-06T07:50:40.673Z,99415.02
2023-02-06T07:53:08.661Z,99414.13
2023-02-06T07:55:38.433Z,99412.56
2023-02-06T07:58:06.719Z,99414.77
2023-02-06T08:00:34.762Z,99411.61
2023-02-06T08:03:04.852Z,99416.09
2023-02-06T08:05:33.985Z,99414.85
2023-02-06T08:08:02.228Z,99410.55
2023-02-06T08:10:30.579Z,99410.98
2023-02-06T08:12:58.836Z,99414.65
2023-02-06T08:15:27.055Z,99417.42
2023-02-06T08:17:55.280Z,99423.80
2023-02-06T08:20:23.314Z,99423.58
2023-02-06T08:22:51.380Z,99422.14
2023-02-06T08:25:19.794Z,99420.52
2023-02-06T08:27:48.034Z,99421.52
2023-02-06T08:30:16.284Z,99425.55
2023-02-06T08:32:44.320Z,99426.63
2023-02-06T08:35:12.997Z,99418.37
2023-02-06T08:37:41.147Z,99423.39
2023-02-06T08:40:09.817Z,99422.45
2023-02-06T08:42:37.935Z,99416.56
2023-02-06T08:45:06.212Z,99410.48
2023-02-06T08:47:34.353Z,99411.96
2023-02-06T08:50:03.662Z,99411.57
2023-02-06T08:52:32.186Z,99416.23
2023-02-06T08:55:00.122Z,99413.93
2023-02-06T08:57:28.296Z,99414.91
2023-02-06T08:59:57.055Z,99421.73
2023-02-06T09:02:25.031Z,99422.34
2023-02-06T09:04:53.091Z,99429.45
2023-02-06T09:07:21.917Z,99428.45
2023-02-06T09:09:50.110Z,99442.91
2023-02-06T09:12:18.102Z,99441.77
2023-02-06T09:14:46.304Z,99441.38
2023-02-06T09:17:14.288Z,99439.25
2023-02-06T09:19:42.211Z,99448.19
2023-02-06T09:22:10.398Z,99441.81
2023-02-06T09:24:38.490Z,99445.85
2023-02-06T09:27:06.691Z,99448.89
2023-02-06T09:29:35.041Z,99446.79
2023-02-06T09:32:03.351Z,99444.27
2023-02-06T09:34:31.383Z,99444.21
2023-02-06T09:37:01.846Z,99444.98
2023-02-06T09:39:30.576Z,99437.86
2023-02-06T09:42:13.109Z,99435.71
2023-02-06T09:44:56.000Z,99433.15
2023-02-06T09:47:26.860Z,99433.02
2023-02-06T09:49:58.585Z,99430.36
2023-02-06T09:52:32.924Z,99428.59
2023-02-06T09:55:04.003Z,99422.95
2023-02-06T09:57:52.195Z,99418.50
2023-02-06T10:00:20.302Z,99419.63
2023-02-06T10:03:14.517Z,99415.02
2023-02-06T10:06:06.912Z,99413.54
2023-02-06T10:08:37.541Z,99413.23
2023-02-06T10:11:28.425Z,99413.66
2023-02-06T10:14:02.240Z,99417.52
2023-02-06T10:16:30.365Z,99416.81
2023-02-06T10:19:01.471Z,99416.09
2023-02-06T10:22:04.861Z,99411.06
2023-02-06T10:24:41.340Z,99415.02
2023-02-06T10:27:11.878Z,99414.96
2023-02-06T10:29:41.484Z,99409.15
2023-02-06T10:32:15.367Z,99411.14
2023-02-06T10:35:01.874Z,99409.06
2023-02-06T10:37:53.187Z,99406.52
2023-02-06T10:40:36.318Z,99411.19
2023-02-06T10:43:13.245Z,99410.38
2023-02-06T10:45:46.789Z,99405.41
2023-02-06T10:48:31.898Z,99408.11
2023-02-06T10:51:22.315Z,99410.20
2023-02-06T10:53:52.242Z,99407.39
2023-02-06T10:56:26.598Z,99404.82
2023-02-06T10:58:57.419Z,99405.81
2023-02-06T11:01:27.126Z,99398.52
2023-02-06T11:04:00.961Z,99394.92
2023-02-06T11:06:30.191Z,99395.59
2023-02-06T11:08:58.414Z,99395.55
2023-02-06T11:11:31.008Z,99398.09
2023-02-06T11:14:02.023Z,99393.96
2023-02-06T11:16:31.136Z,99391.98
2023-02-06T11:19:01.857Z,99395.22
2023-02-06T11:21:42.005Z,99396.86
2023-02-06T11:24:11.154Z,99396.16
2023-02-06T11:26:59.340Z,99398.00
2023-02-06T11:29:37.250Z,99402.33
2023-02-06T11:32:24.474Z,99400.08
2023-02-06T11:35:00.781Z,99396.57
2023-02-06T11:37:37.102Z,99396.36
2023-02-06T11:40:14.210Z,99398.09
2023-02-06T11:42:42.953Z,99395.59
2023-02-06T11:45:23.254Z,99394.02
2023-02-06T11:47:51.249Z,99394.58
2023-02-06T11:50:27.132Z,99394.36
2023-02-06T11:52:59.813Z,99392.66
2023-02-06T11:55:30.133Z,99396.03
2023-02-06T11:58:13.098Z,99389.77
2023-02-06T12:00:57.520Z,99387.93
2023-02-06T12:03:28.762Z,99385.11
2023-02-06T12:06:01.975Z,99380.03
2023-02-06T12:08:50.333Z,99377.80
2023-02-06T12:11:22.966Z,99371.54
2023-02-06T12:13:54.753Z,99369.80
2023-02-06T12:16:23.372Z,99371.84
2023-02-06T12:18:54.334Z,99375.05
2023-02-06T12:21:41.805Z,99376.10
2023-02-06T12:24:19.155Z,99369.90
2023-02-06T12:26:47.857Z,99370.63
2023-02-06T12:29:20.288Z,99372.34
2023-02-06T12:31:53.140Z,99369.27
2023-02-06T12:34:32.000Z,99368.02
2023-02-06T12:37:15.055Z,99366.33
2023-02-06T12:39:43.808Z,99366.85
2023-02-06T12:42:32.124Z,99364.00
2023-02-06T12:45:27.684Z,99367.99
2023-02-06T12:47:59.573Z,99369.92
2023-02-06T12:50:36.628Z,99368.51
2023-02-06T12:53:07.230Z,99367.44
2023-02-06T12:55:37.815Z,99369.77
2023-02-06T12:58:22.156Z,99374.90
2023-02-06T13:01:25.820Z,99375.21
2023-02-06T13:03:58.669Z,99375.96
2023-02-06T13:06:33.680Z,99379.20
2023-02-06T13:09:04.189Z,99381.73
2023-02-06T13:11:35.773Z,99376.77
2023-02-06T13:14:15.717Z,99376.67
2023-02-06T13:17:04.948Z,99377.43
2023-02-06T13:19:41.645Z,99376.66
2023-02-06T13:22:09.732Z,99373.56
2023-02-06T13:24:38.620Z,99381.25
2023-02-06T13:27:12.159Z,99380.33
2023-02-06T13:29:47.637Z,99382.59
2023-02-06T13:32:15.705Z,99382.02
2023-02-06T13:34:43.797Z,99380.91
2023-02-06T13:37:30.479Z,99385.96
2023-02-06T13:40:31.328Z,99385.04
2023-02-06T13:43:19.659Z,99384.88
2023-02-06T13:45:59.149Z,99389.74
2023-02-06T13:48:39.276Z,99389.21
2023-02-06T13:51:25.960Z,99391.08
2023-02-06T13:54:16.628Z,99395.55
2023-02-06T13:57:10.711Z,99391.73
2023-02-06T13:59:46.696Z,99391.27
2023-02-06T14:02:35.195Z,99396.38
2023-02-06T14:05:05.132Z,99401.16
2023-02-06T14:07:33.440Z,99398.30
2023-02-06T14:10:19.530Z,99401.23
2023-02-06T14:12:56.685Z,99410.67
2023-02-06T14:15:33.536Z,99412.36
2023-02-06T14:18:20.516Z,99412.63
2023-02-06T14:20:52.905Z,99411.96
2023-02-06T14:23:39.749Z,99409.64
2023-02-06T14:26:15.628Z,99412.98
2023-02-06T14:29:02.452Z,99414.17
2023-02-06T14:31:38.571Z,99409.35
2023-02-06T14:34:06.744Z,99410.86
2023-02-06T14:36:40.961Z,99409.55
2023-02-06T14:39:12.218Z,99408.86
2023-02-06T14:41:40.450Z,99406.73
2023-02-06T14:44:12.054Z,99407.64
2023-02-06T14:46:41.749Z,99408.13
2023-02-06T14:49:15.977Z,99408.94
2023-02-06T14:51:48.460Z,99411.63
2023-02-06T14:54:33.518Z,99406.62
2023-02-06T14:57:02.971Z,99402.20
2023-02-06T14:59:31.685Z,99407.73
2023-02-06T15:02:11.766Z,99414.30
2023-02-06T15:04:49.014Z,99417.77
2023-02-06T15:07:25.110Z,99417.85
2023-02-06T15:09:58.721Z,99417.47
2023-02-06T15:12:29.204Z,99421.30
2023-02-06T15:15:05.318Z,99427.42
2023-02-06T15:17:34.534Z,99426.73
2023-02-06T15:20:15.994Z,99426.63
2023-02-06T15:22:44.277Z,99428.17
2023-02-06T15:25:18.461Z,99428.48
2023-02-06T15:27:46.778Z,99426.30
2023-02-06T15:30:22.207Z,99429.98
2023-02-06T15:32:51.393Z,99432.05
2023-02-06T15:35:33.375Z,99431.92
2023-02-06T15:38:05.850Z,99428.84
2023-02-06T15:40:35.995Z,99430.52
2023-02-06T15:43:04.983Z,99427.58
2023-02-06T15:45:36.117Z,99427.80
2023-02-06T15:48:21.224Z,99436.17
2023-02-06T15:51:07.470Z,99439.41
2023-02-06T15:53:37.895Z,99437.27
2023-02-06T15:56:16.406Z,99441.08
2023-02-06T15:58:44.631Z,99445.91
2023-02-06T16:01:19.130Z,99448.20
2023-02-06T16:03:53.461Z,99455.70
2023-02-06T16:06:22.353Z,99455.47
2023-02-06T16:08:52.638Z,99449.91
2023-02-06T16:11:40.057Z,99459.02
2023-02-06T16:14:17.202Z,99464.88
2023-02-06T16:16:55.519Z,99462.60
2023-02-06T16:19:38.154Z,99465.02
2023-02-06T16:22:15.269Z,99469.38
2023-02-06T16:24:43.565Z,99468.23
2023-02-06T16:27:16.432Z,99471.66
2023-02-06T16:29:46.836Z,99475.45
2023-02-06T16:32:21.200Z,99472.79
2023-02-06T16:34:49.257Z,99476.06
2023-02-06T16:37:19.377Z,99477.81
2023-02-06T16:39:48.008Z,99482.30
2023-02-06T16:42:18.331Z,99482.72
2023-02-06T16:44:49.938Z,99483.30
2023-02-06T16:47:20.007Z,99484.48
2023-02-06T16:49:52.245Z,99494.59
2023-02-06T16:52:25.987Z,99499.52
2023-02-06T16:54:56.019Z,99501.28
2023-02-06T16:57:26.420Z,99505.27
2023-02-06T16:59:54.416Z,99504.52
2023-02-06T17:02:23.897Z,99508.89
2023-02-06T17:04:52.066Z,99509.41
2023-02-06T17:07:22.067Z,99509.74
2023-02-06T17:09:50.851Z,99507.69
2023-02-06T17:12:20.217Z,99511.83
2023-02-06T17:14:48.988Z,99509.30
2023-02-06T17:17:18.961Z,99504.89
2023-02-06T17:19:47.644Z,99506.96
2023-02-06T17:22:16.143Z,99508.65
2023-02-06T17:24:44.714Z,99511.10
2023-02-06T17:27:14.820Z,99514.84
2023-02-06T17:29:43.411Z,99516.59
2023-02-06T17:32:13.520Z,99516.65
2023-02-06T17:34:41.592Z,99522.10
2023-02-06T17:37:12.438Z,99526.05
2023-02-06T17:39:40.351Z,99522.98
2023-02-06T17:42:08.371Z,99520.21
2023-02-06T17:44:36.537Z,99519.14
2023-02-06T17:47:07.475Z,99520.16
2023-02-06T17:49:35.545Z,99519.39
2023-02-06T17:52:03.931Z,99518.71
2023-02-06T17:54:31.941Z,99516.94
2023-02-06T17:56:59.962Z,99522.40
2023-02-06T17:59:28.047Z,99523.20
2023-02-06T18:01:56.140Z,99523.15
2023-02-06T18:04:24.769Z,99521.59
2023-02-06T18:06:53.464Z,99525.08
2023-02-06T18:09:21.544Z,99523.70
2023-02-06T18:11:49.813Z,99525.70
2023-02-06T18:14:17.886Z,99527.72
2023-02-06T18:16:47.280Z,99529.61
2023-02-06T18:19:16.085Z,99530.56
2023-02-06T18:21:44.160Z,99528.05
2023-02-06T18:24:12.211Z,99529.08
2023-02-06T18:26:40.168Z,99530.53
2023-02-06T18:29:08.185Z,99528.56
2023-02-06T18:31:36.720Z,99527.44
2023-02-06T18:34:08.061Z,99532.74
2023-02-06T18:36:37.139Z,99527.52
2023-02-06T18:39:06.147Z,99524.17
2023-02-06T18:41:52.973Z,99526.29
2023-02-06T18:44:21.036Z,99525.84
2023-02-06T18:46:49.180Z,99526.59
2023-02-06T18:49:17.793Z,99521.45
2023-02-06T18:51:45.918Z,99527.77
2023-02-06T18:54:14.148Z,99528.20
2023-02-06T18:56:42.278Z,99525.44
2023-02-06T18:59:10.207Z,99533.19
2023-02-06T19:01:38.228Z,99523.73
2023-02-06T19:04:06.426Z,99528.64
2023-02-06T19:06:36.648Z,99529.30
2023-02-06T19:09:09.229Z,99531.52
2023-02-06T19:11:37.588Z,99536.64
2023-02-06T19:14:07.253Z,99534.41
2023-02-06T19:16:38.579Z,99540.13
2023-02-06T19:19:09.524Z,99541.67
2023-02-06T19:21:38.418Z,99543.60
2023-02-06T19:24:07.507Z,99543.48
2023-02-06T19:26:35.446Z,99545.09
2023-02-06T19:29:03.814Z,99545.58
2023-02-06T19:31:32.541Z,99549.59
2023-02-06T19:34:01.999Z,99549.60
2023-02-06T19:36:30.480Z,99551.52
2023-02-06T19:39:00.292Z,99548.36
2023-02-06T19:41:29.593Z,99553.94
2023-02-06T19:43:58.484Z,99555.20
2023-02-06T19:46:27.364Z,99557.45
2023-02-06T19:48:55.859Z,99558.96
2023-02-06T19:51:28.517Z,99565.83
2023-02-06T19:53:57.100Z,99568.14
2023-02-06T19:56:26.622Z,99569.58
2023-02-06T19:58:55.206Z,99568.23
2023-02-06T20:01:24.205Z,99568.29
2023-02-06T20:03:53.040Z,99566.15
2023-02-06T20:06:21.398Z,99577.20
2023-02-06T20:08:49.714Z,99574.02
2023-02-06T20:11:19.634Z,99571.61
2023-02-06T20:13:48.521Z,99572.09
2023-02-06T20:16:18.217Z,99576.83
2023-02-06T20:18:46.166Z,99580.92
2023-02-06T20:21:28.330Z,99588.29
2023-02-06T20:23:58.060Z,99592.50
2023-02-06T20:26:27.653Z,99591.88
2023-02-06T20:28:56.499Z,99592.98
2023-02-06T20:31:24.543Z,99591.63
2023-02-06T20:33:53.358Z,99596.76
2023-02-06T20:36:23.484Z,99597.14
2023-02-06T20:38:58.722Z,99597.79
2023-02-06T20:41:28.704Z,99595.41
2023-02-06T20:43:57.402Z,99594.70
2023-02-06T20:46:26.931Z,99595.75
2023-02-06T20:49:01.217Z,99600.96
2023-02-06T20:51:29.720Z,99605.52
2023-02-06T20:53:58.292Z,99608.12
2023-02-06T20:56:27.081Z,99614.31
2023-02-06T20:58:58.152Z,99608.77
2023-02-06T21:01:28.194Z,99609.67
2023-02-06T21:03:58.055Z,99613.48
2023-02-06T21:06:26.938Z,99607.83
2023-02-06T21:09:00.221Z,99609.07
2023-02-06T21:11:31.073Z,99616.33
2023-02-06T21:14:00.579Z,99621.95
2023-02-06T21:16:29.847Z,99621.52
2023-02-06T21:18:58.653Z,99624.78
2023-02-06T21:21:27.137Z,99620.77
2023-02-06T21:23:58.278Z,99619.09
2023-02-06T21:26:27.799Z,99617.19
2023-02-06T21:28:55.900Z,99618.73
2023-02-06T21:31:25.617Z,99616.20
2023-02-06T21:33:53.842Z,99615.52
2023-02-06T21:36:22.949Z,99614.38
2023-02-06T21:38:51.212Z,99612.86
2023-02-06T21:41:19.245Z,99616.10
2023-02-06T21:43:47.556Z,99618.76
2023-02-06T21:46:15.807Z,99626.62
2023-02-06T21:48:44.098Z,99629.48
2023-02-06T21:51:13.775Z,99634.03
2023-02-06T21:53:42.528Z,99627.98
2023-02-06T21:56:15.277Z,99632.58
2023-02-06T21:58:43.422Z,99636.53
2023-02-06T22:01:18.728Z,99642.95
2023-02-06T22:03:47.364Z,99639.73
2023-02-06T22:06:20.222Z,99636.73
2023-02-06T22:08:51.867Z,99632.92
2023-02-06T22:11:21.370Z,99635.59
2023-02-06T22:13:50.793Z,99631.39
2023-02-06T22:16:21.831Z,99632.94
2023-02-06T22:18:50.212Z,99637.49
2023-02-06T22:21:20.494Z,99641.85
2023-02-06T22:23:49.613Z,99640.15
2023-02-06T22:26:18.872Z,99637.61
2023-02-06T22:28:47.218Z,99641.70
2023-02-06T22:31:17.801Z,99641.59
2023-02-06T22:33:46.217Z,99643.59
2023-02-06T22:36:15.934Z,99645.93
2023-02-06T22:38:45.429Z,99647.59
2023-02-06T22:41:16.944Z,99644.16
2023-02-06T22:43:46.182Z,99649.73
2023-02-06T22:46:18.602Z,99654.61
2023-02-06T22:48:46.698Z,99650.45
2023-02-06T22:51:17.450Z,99652.16
2023-02-06T22:53:46.138Z,99650.67
2023-02-06T22:56:28.023Z,99647.17
2023-02-06T22:58:57.743Z,99648.80
2023-02-06T23:01:29.294Z,99645.32
2023-02-06T23:03:57.904Z,99644.94
2023-02-06T23:06:27.392Z,99647.12
2023-02-06T23:08:56.575Z,99647.91
2023-02-06T23:11:25.081Z,99649.48
2023-02-06T23:13:54.495Z,99650.35
2023-02-06T23:16:22.677Z,99651.22
2023-02-06T23:18:51.219Z,99651.09
2023-02-06T23:21:20.972Z,99648.64
2023-02-06T23:23:49.389Z,99650.98
2023-02-06T23:26:18.384Z,99647.67
2023-02-06T23:28:46.654Z,99643.99
2023-02-06T23:31:14.694Z,99641.85
2023-02-06T23:33:43.015Z,99638.63
2023-02-06T23:36:12.694Z,99642.52
2023-02-06T23:38:41.111Z,99642.29
2023-02-06T23:41:11.389Z,99646.07
2023-02-06T23:43:39.964Z,99645.58
2023-02-06T23:46:11.999Z,99639.73
2023-02-06T23:48:40.733Z,99635.37
2023-02-06T23:51:08.782Z,99634.45
2023-02-06T23:53:36.882Z,99637.16
2023-02-06T23:56:18.833Z,99633.05
2023-02-06T23:58:47.213Z,99633.02
